sensor_id;sensor_type;location;lat;lon;timestamp;P1;durP1;ratioP1;P2;durP2;ratioP2
57333;SDS011;43165;50.998;18.164;2022-09-03T00:02:08;5.50;;;2.30;;
57333;SDS011;43165;50.998;18.164;2022-09-03T00:13:26;6.20;;;2.20;;
57333;SDS011;43165;50.998;18.164;2022-09-03T00:15:56;9.10;;;2.40;;
57333;SDS011;43165;50.998;18.164;2022-09-03T00:18:23;4.80;;;2.30;;
57333;SDS011;43165;50.998;18.164;2022-09-03T00:20:55;5.90;;;2.40;;
57333;SDS011;43165;50.998;18.164;2022-09-03T00:23:25;5.70;;;2.20;;
57333;SDS011;43165;50.998;18.164;2022-09-03T00:28:41;5.40;;;2.20;;
57333;SDS011;43165;50.998;18.164;2022-09-03T00:31:21;7.70;;;2.50;;
57333;SDS011;43165;50.998;18.164;2022-09-03T00:33:55;5.70;;;2.40;;
57333;SDS011;43165;50.998;18.164;2022-09-03T00:36:27;4.00;;;2.10;;
57333;SDS011;43165;50.998;18.164;2022-09-03T00:38:58;5.70;;;2.70;;
57333;SDS011;43165;50.998;18.164;2022-09-03T00:44:18;5.40;;;2.30;;
57333;SDS011;43165;50.998;18.164;2022-09-03T00:46:56;5.50;;;2.50;;
57333;SDS011;43165;50.998;18.164;2022-09-03T00:49:32;6.20;;;2.50;;
57333;SDS011;43165;50.998;18.164;2022-09-03T00:52:11;5.50;;;2.50;;
57333;SDS011;43165;50.998;18.164;2022-09-03T01:05:08;4.00;;;2.60;;
57333;SDS011;43165;50.998;18.164;2022-09-03T01:12:54;4.00;;;2.60;;
57333;SDS011;43165;50.998;18.164;2022-09-03T01:32:24;6.80;;;2.50;;
57333;SDS011;43165;50.998;18.164;2022-09-03T01:46:34;8.30;;;2.60;;
57333;SDS011;43165;50.998;18.164;2022-09-03T01:49:03;4.10;;;2.30;;
57333;SDS011;43165;50.998;18.164;2022-09-03T01:51:37;5.20;;;2.60;;
57333;SDS011;43165;50.998;18.164;2022-09-03T02:02:28;6.10;;;2.80;;
57333;SDS011;43165;50.998;18.164;2022-09-03T02:05:12;4.50;;;2.90;;
57333;SDS011;43165;50.998;18.164;2022-09-03T02:07:43;3.70;;;2.70;;
57333;SDS011;43165;50.998;18.164;2022-09-03T02:10:14;7.10;;;2.70;;
57333;SDS011;43165;50.998;18.164;2022-09-03T02:12:43;3.20;;;2.60;;
57333;SDS011;43165;50.998;18.164;2022-09-03T02:15:16;5.30;;;2.90;;
57333;SDS011;43165;50.998;18.164;2022-09-03T02:17:45;7.90;;;2.90;;
57333;SDS011;43165;50.998;18.164;2022-09-03T02:20:21;5.60;;;2.40;;
57333;SDS011;43165;50.998;18.164;2022-09-03T02:22:48;4.70;;;2.60;;
57333;SDS011;43165;50.998;18.164;2022-09-03T02:25:15;4.90;;;2.90;;
57333;SDS011;43165;50.998;18.164;2022-09-03T02:27:41;10.90;;;2.50;;
57333;SDS011;43165;50.998;18.164;2022-09-03T02:30:08;4.30;;;2.60;;
57333;SDS011;43165;50.998;18.164;2022-09-03T02:32:34;4.20;;;2.70;;
57333;SDS011;43165;50.998;18.164;2022-09-03T02:34:59;6.40;;;2.70;;
57333;SDS011;43165;50.998;18.164;2022-09-03T02:37:25;7.40;;;2.60;;
57333;SDS011;43165;50.998;18.164;2022-09-03T02:39:51;5.00;;;2.40;;
57333;SDS011;43165;50.998;18.164;2022-09-03T02:42:17;6.70;;;2.70;;
57333;SDS011;43165;50.998;18.164;2022-09-03T02:44:44;4.70;;;2.60;;
57333;SDS011;43165;50.998;18.164;2022-09-03T02:47:12;7.20;;;2.60;;
57333;SDS011;43165;50.998;18.164;2022-09-03T02:49:39;5.40;;;2.90;;
57333;SDS011;43165;50.998;18.164;2022-09-03T02:52:06;5.10;;;2.90;;
57333;SDS011;43165;50.998;18.164;2022-09-03T02:54:34;6.80;;;2.80;;
57333;SDS011;43165;50.998;18.164;2022-09-03T02:57:11;7.40;;;2.80;;
57333;SDS011;43165;50.998;18.164;2022-09-03T02:59:38;5.10;;;2.60;;
57333;SDS011;43165;50.998;18.164;2022-09-03T03:02:05;5.40;;;2.90;;
57333;SDS011;43165;50.998;18.164;2022-09-03T03:04:31;4.60;;;3.00;;
57333;SDS011;43165;50.998;18.164;2022-09-03T03:06:57;6.40;;;3.10;;
57333;SDS011;43165;50.998;18.164;2022-09-03T03:09:23;3.90;;;2.90;;
57333;SDS011;43165;50.998;18.164;2022-09-03T03:11:48;4.10;;;2.40;;
57333;SDS011;43165;50.998;18.164;2022-09-03T03:14:14;5.30;;;2.80;;
57333;SDS011;43165;50.998;18.164;2022-09-03T03:16:41;3.40;;;2.50;;
57333;SDS011;43165;50.998;18.164;2022-09-03T03:19:07;6.00;;;2.80;;
57333;SDS011;43165;50.998;18.164;2022-09-03T03:21:32;3.70;;;2.80;;
57333;SDS011;43165;50.998;18.164;2022-09-03T03:23:59;5.60;;;2.60;;
57333;SDS011;43165;50.998;18.164;2022-09-03T03:26:25;7.00;;;2.70;;
57333;SDS011;43165;50.998;18.164;2022-09-03T03:28:54;6.60;;;2.70;;
57333;SDS011;43165;50.998;18.164;2022-09-03T03:31:22;5.90;;;2.70;;
57333;SDS011;43165;50.998;18.164;2022-09-03T03:33:51;5.40;;;2.50;;
57333;SDS011;43165;50.998;18.164;2022-09-03T03:36:21;7.20;;;2.70;;
57333;SDS011;43165;50.998;18.164;2022-09-03T03:38:47;7.20;;;2.70;;
57333;SDS011;43165;50.998;18.164;2022-09-03T03:41:15;7.10;;;3.10;;
57333;SDS011;43165;50.998;18.164;2022-09-03T03:43:43;9.00;;;2.80;;
57333;SDS011;43165;50.998;18.164;2022-09-03T03:46:10;5.30;;;3.00;;
57333;SDS011;43165;50.998;18.164;2022-09-03T03:48:36;6.60;;;3.10;;
57333;SDS011;43165;50.998;18.164;2022-09-03T03:51:03;3.50;;;2.70;;
57333;SDS011;43165;50.998;18.164;2022-09-03T03:53:32;5.70;;;2.90;;
57333;SDS011;43165;50.998;18.164;2022-09-03T03:55:59;5.90;;;2.80;;
57333;SDS011;43165;50.998;18.164;2022-09-03T03:58:29;6.60;;;3.00;;
57333;SDS011;43165;50.998;18.164;2022-09-03T04:01:30;5.60;;;2.70;;
57333;SDS011;43165;50.998;18.164;2022-09-03T04:03:49;5.50;;;2.70;;
57333;SDS011;43165;50.998;18.164;2022-09-03T04:06:16;4.80;;;2.70;;
57333;SDS011;43165;50.998;18.164;2022-09-03T04:08:44;3.20;;;2.90;;
57333;SDS011;43165;50.998;18.164;2022-09-03T04:11:12;6.80;;;3.00;;
57333;SDS011;43165;50.998;18.164;2022-09-03T04:13:40;4.20;;;3.30;;
57333;SDS011;43165;50.998;18.164;2022-09-03T04:16:08;6.90;;;3.10;;
57333;SDS011;43165;50.998;18.164;2022-09-03T04:18:38;5.70;;;3.00;;
57333;SDS011;43165;50.998;18.164;2022-09-03T04:21:05;7.20;;;2.80;;
57333;SDS011;43165;50.998;18.164;2022-09-03T04:23:32;5.00;;;3.20;;
57333;SDS011;43165;50.998;18.164;2022-09-03T04:26:00;5.20;;;3.10;;
57333;SDS011;43165;50.998;18.164;2022-09-03T04:28:26;7.20;;;2.90;;
57333;SDS011;43165;50.998;18.164;2022-09-03T04:30:52;6.20;;;3.00;;
57333;SDS011;43165;50.998;18.164;2022-09-03T04:33:18;7.10;;;2.90;;
57333;SDS011;43165;50.998;18.164;2022-09-03T04:35:44;6.90;;;3.00;;
57333;SDS011;43165;50.998;18.164;2022-09-03T04:38:10;7.50;;;3.20;;
57333;SDS011;43165;50.998;18.164;2022-09-03T04:40:36;7.80;;;3.20;;
57333;SDS011;43165;50.998;18.164;2022-09-03T04:43:02;12.50;;;3.20;;
57333;SDS011;43165;50.998;18.164;2022-09-03T04:45:28;6.90;;;3.20;;
57333;SDS011;43165;50.998;18.164;2022-09-03T04:47:58;6.50;;;3.10;;
57333;SDS011;43165;50.998;18.164;2022-09-03T04:50:27;11.90;;;2.90;;
57333;SDS011;43165;50.998;18.164;2022-09-03T04:52:54;6.60;;;3.10;;
57333;SDS011;43165;50.998;18.164;2022-09-03T04:55:25;4.70;;;2.90;;
57333;SDS011;43165;50.998;18.164;2022-09-03T04:57:50;7.20;;;2.80;;
57333;SDS011;43165;50.998;18.164;2022-09-03T05:00:16;9.90;;;3.10;;
57333;SDS011;43165;50.998;18.164;2022-09-03T05:02:43;6.00;;;2.90;;
57333;SDS011;43165;50.998;18.164;2022-09-03T05:05:11;8.70;;;3.20;;
57333;SDS011;43165;50.998;18.164;2022-09-03T05:07:37;9.10;;;3.50;;
57333;SDS011;43165;50.998;18.164;2022-09-03T05:10:05;5.90;;;2.90;;
57333;SDS011;43165;50.998;18.164;2022-09-03T05:12:37;6.60;;;2.70;;
57333;SDS011;43165;50.998;18.164;2022-09-03T05:15:03;4.80;;;2.50;;
57333;SDS011;43165;50.998;18.164;2022-09-03T05:17:29;5.80;;;2.90;;
57333;SDS011;43165;50.998;18.164;2022-09-03T05:19:55;4.20;;;2.60;;
57333;SDS011;43165;50.998;18.164;2022-09-03T05:22:20;4.80;;;2.60;;
57333;SDS011;43165;50.998;18.164;2022-09-03T05:24:46;6.90;;;2.60;;
57333;SDS011;43165;50.998;18.164;2022-09-03T05:27:15;5.70;;;2.80;;
57333;SDS011;43165;50.998;18.164;2022-09-03T05:29:41;3.20;;;2.90;;
57333;SDS011;43165;50.998;18.164;2022-09-03T05:32:08;4.80;;;3.10;;
57333;SDS011;43165;50.998;18.164;2022-09-03T05:34:34;6.70;;;3.30;;
57333;SDS011;43165;50.998;18.164;2022-09-03T05:36:59;5.40;;;2.70;;
57333;SDS011;43165;50.998;18.164;2022-09-03T05:39:25;14.70;;;3.30;;
57333;SDS011;43165;50.998;18.164;2022-09-03T05:41:51;6.30;;;3.10;;
57333;SDS011;43165;50.998;18.164;2022-09-03T05:44:17;10.40;;;3.20;;
57333;SDS011;43165;50.998;18.164;2022-09-03T05:46:45;8.50;;;2.80;;
57333;SDS011;43165;50.998;18.164;2022-09-03T05:49:11;4.20;;;2.80;;
57333;SDS011;43165;50.998;18.164;2022-09-03T05:51:36;7.20;;;3.30;;
57333;SDS011;43165;50.998;18.164;2022-09-03T05:54:06;6.50;;;3.00;;
57333;SDS011;43165;50.998;18.164;2022-09-03T05:56:35;9.50;;;3.30;;
57333;SDS011;43165;50.998;18.164;2022-09-03T05:59:02;6.80;;;3.00;;
57333;SDS011;43165;50.998;18.164;2022-09-03T06:01:32;6.50;;;2.90;;
57333;SDS011;43165;50.998;18.164;2022-09-03T06:04:10;9.50;;;3.20;;
57333;SDS011;43165;50.998;18.164;2022-09-03T06:06:41;8.80;;;2.90;;
57333;SDS011;43165;50.998;18.164;2022-09-03T06:09:09;8.30;;;3.00;;
57333;SDS011;43165;50.998;18.164;2022-09-03T06:11:36;6.50;;;3.50;;
57333;SDS011;43165;50.998;18.164;2022-09-03T06:14:03;8.30;;;3.20;;
57333;SDS011;43165;50.998;18.164;2022-09-03T06:16:30;7.30;;;3.00;;
57333;SDS011;43165;50.998;18.164;2022-09-03T06:18:58;7.90;;;3.70;;
57333;SDS011;43165;50.998;18.164;2022-09-03T06:21:24;6.30;;;3.40;;
57333;SDS011;43165;50.998;18.164;2022-09-03T06:23:50;5.70;;;3.20;;
57333;SDS011;43165;50.998;18.164;2022-09-03T06:26:18;11.40;;;3.80;;
57333;SDS011;43165;50.998;18.164;2022-09-03T06:28:44;6.70;;;3.90;;
57333;SDS011;43165;50.998;18.164;2022-09-03T06:31:16;13.20;;;3.40;;
57333;SDS011;43165;50.998;18.164;2022-09-03T06:33:44;8.50;;;3.40;;
57333;SDS011;43165;50.998;18.164;2022-09-03T06:36:12;5.00;;;3.50;;
57333;SDS011;43165;50.998;18.164;2022-09-03T06:38:39;8.10;;;3.80;;
57333;SDS011;43165;50.998;18.164;2022-09-03T06:41:07;6.50;;;4.20;;
57333;SDS011;43165;50.998;18.164;2022-09-03T06:43:35;7.90;;;4.00;;
57333;SDS011;43165;50.998;18.164;2022-09-03T06:46:03;8.70;;;3.40;;
57333;SDS011;43165;50.998;18.164;2022-09-03T06:48:39;5.10;;;3.20;;
57333;SDS011;43165;50.998;18.164;2022-09-03T06:51:09;7.10;;;3.50;;
57333;SDS011;43165;50.998;18.164;2022-09-03T06:53:37;7.80;;;3.80;;
57333;SDS011;43165;50.998;18.164;2022-09-03T06:56:14;9.70;;;3.40;;
57333;SDS011;43165;50.998;18.164;2022-09-03T06:58:42;12.40;;;3.90;;
57333;SDS011;43165;50.998;18.164;2022-09-03T07:01:13;8.60;;;4.20;;
57333;SDS011;43165;50.998;18.164;2022-09-03T07:06:13;9.10;;;3.80;;
57333;SDS011;43165;50.998;18.164;2022-09-03T07:08:40;5.50;;;3.70;;
57333;SDS011;43165;50.998;18.164;2022-09-03T07:11:11;8.70;;;3.70;;
57333;SDS011;43165;50.998;18.164;2022-09-03T07:13:42;7.80;;;4.00;;
57333;SDS011;43165;50.998;18.164;2022-09-03T07:16:11;6.90;;;3.90;;
57333;SDS011;43165;50.998;18.164;2022-09-03T07:18:38;7.60;;;3.50;;
57333;SDS011;43165;50.998;18.164;2022-09-03T07:21:05;6.20;;;3.70;;
57333;SDS011;43165;50.998;18.164;2022-09-03T07:23:33;10.00;;;3.80;;
57333;SDS011;43165;50.998;18.164;2022-09-03T07:26:00;9.00;;;3.80;;
57333;SDS011;43165;50.998;18.164;2022-09-03T07:28:29;7.40;;;4.10;;
57333;SDS011;43165;50.998;18.164;2022-09-03T07:31:00;7.90;;;3.80;;
57333;SDS011;43165;50.998;18.164;2022-09-03T07:33:30;8.20;;;4.60;;
57333;SDS011;43165;50.998;18.164;2022-09-03T07:36:01;11.10;;;4.40;;
57333;SDS011;43165;50.998;18.164;2022-09-03T07:38:31;8.40;;;4.70;;
57333;SDS011;43165;50.998;18.164;2022-09-03T07:41:00;8.20;;;4.90;;
57333;SDS011;43165;50.998;18.164;2022-09-03T07:43:28;9.20;;;4.80;;
57333;SDS011;43165;50.998;18.164;2022-09-03T07:45:54;9.60;;;5.00;;
57333;SDS011;43165;50.998;18.164;2022-09-03T07:48:21;7.50;;;4.10;;
57333;SDS011;43165;50.998;18.164;2022-09-03T07:50:47;8.40;;;4.20;;
57333;SDS011;43165;50.998;18.164;2022-09-03T07:53:17;6.20;;;4.50;;
57333;SDS011;43165;50.998;18.164;2022-09-03T07:55:45;7.10;;;4.50;;
57333;SDS011;43165;50.998;18.164;2022-09-03T07:58:12;10.40;;;4.50;;
57333;SDS011;43165;50.998;18.164;2022-09-03T08:00:38;8.30;;;4.50;;
57333;SDS011;43165;50.998;18.164;2022-09-03T08:03:06;8.90;;;4.70;;
57333;SDS011;43165;50.998;18.164;2022-09-03T08:05:34;8.10;;;4.40;;
57333;SDS011;43165;50.998;18.164;2022-09-03T08:08:03;7.60;;;4.90;;
57333;SDS011;43165;50.998;18.164;2022-09-03T08:10:29;9.40;;;4.80;;
57333;SDS011;43165;50.998;18.164;2022-09-03T08:12:58;9.60;;;5.00;;
57333;SDS011;43165;50.998;18.164;2022-09-03T08:15:24;9.20;;;5.20;;
57333;SDS011;43165;50.998;18.164;2022-09-03T08:17:50;12.30;;;5.00;;
57333;SDS011;43165;50.998;18.164;2022-09-03T08:20:16;10.00;;;5.30;;
57333;SDS011;43165;50.998;18.164;2022-09-03T08:22:42;11.20;;;5.40;;
57333;SDS011;43165;50.998;18.164;2022-09-03T08:25:08;11.10;;;5.20;;
57333;SDS011;43165;50.998;18.164;2022-09-03T08:27:34;8.40;;;5.00;;
57333;SDS011;43165;50.998;18.164;2022-09-03T08:29:59;7.30;;;4.70;;
57333;SDS011;43165;50.998;18.164;2022-09-03T08:32:28;11.30;;;5.00;;
57333;SDS011;43165;50.998;18.164;2022-09-03T08:34:54;7.90;;;4.60;;
57333;SDS011;43165;50.998;18.164;2022-09-03T08:37:19;5.70;;;4.70;;
57333;SDS011;43165;50.998;18.164;2022-09-03T08:39:46;9.40;;;4.80;;
57333;SDS011;43165;50.998;18.164;2022-09-03T08:45:10;24.10;;;5.20;;
57333;SDS011;43165;50.998;18.164;2022-09-03T08:50:45;10.60;;;5.10;;
57333;SDS011;43165;50.998;18.164;2022-09-03T08:53:35;7.80;;;4.80;;
57333;SDS011;43165;50.998;18.164;2022-09-03T08:59:08;7.60;;;4.90;;
57333;SDS011;43165;50.998;18.164;2022-09-03T09:01:50;7.40;;;5.00;;
57333;SDS011;43165;50.998;18.164;2022-09-03T09:07:10;6.60;;;4.10;;
57333;SDS011;43165;50.998;18.164;2022-09-03T09:09:59;6.00;;;4.60;;
57333;SDS011;43165;50.998;18.164;2022-09-03T09:15:43;6.60;;;4.50;;
57333;SDS011;43165;50.998;18.164;2022-09-03T09:18:22;8.30;;;4.60;;
57333;SDS011;43165;50.998;18.164;2022-09-03T09:23:32;7.90;;;4.60;;
57333;SDS011;43165;50.998;18.164;2022-09-03T09:26:00;6.20;;;3.90;;
57333;SDS011;43165;50.998;18.164;2022-09-03T09:28:35;13.00;;;4.30;;
57333;SDS011;43165;50.998;18.164;2022-09-03T09:31:02;7.30;;;4.10;;
57333;SDS011;43165;50.998;18.164;2022-09-03T09:33:29;10.80;;;4.20;;
57333;SDS011;43165;50.998;18.164;2022-09-03T09:35:58;7.40;;;3.70;;
57333;SDS011;43165;50.998;18.164;2022-09-03T09:38:27;6.00;;;3.50;;
57333;SDS011;43165;50.998;18.164;2022-09-03T09:40:54;10.80;;;4.10;;
57333;SDS011;43165;50.998;18.164;2022-09-03T09:43:21;5.70;;;3.60;;
57333;SDS011;43165;50.998;18.164;2022-09-03T09:45:51;9.00;;;4.10;;
57333;SDS011;43165;50.998;18.164;2022-09-03T09:48:28;19.70;;;4.70;;
57333;SDS011;43165;50.998;18.164;2022-09-03T09:51:02;12.50;;;3.70;;
57333;SDS011;43165;50.998;18.164;2022-09-03T09:53:31;16.90;;;3.50;;
57333;SDS011;43165;50.998;18.164;2022-09-03T09:55:59;7.80;;;3.20;;
57333;SDS011;43165;50.998;18.164;2022-09-03T09:58:27;9.60;;;3.40;;
57333;SDS011;43165;50.998;18.164;2022-09-03T10:01:02;8.20;;;3.70;;
57333;SDS011;43165;50.998;18.164;2022-09-03T10:03:39;6.10;;;3.90;;
57333;SDS011;43165;50.998;18.164;2022-09-03T10:06:13;15.50;;;3.40;;
57333;SDS011;43165;50.998;18.164;2022-09-03T10:11:40;7.00;;;3.30;;
57333;SDS011;43165;50.998;18.164;2022-09-03T10:14:19;7.10;;;3.20;;
57333;SDS011;43165;50.998;18.164;2022-09-03T10:16:49;4.80;;;3.40;;
57333;SDS011;43165;50.998;18.164;2022-09-03T10:19:22;7.50;;;3.50;;
57333;SDS011;43165;50.998;18.164;2022-09-03T10:22:06;13.90;;;3.60;;
57333;SDS011;43165;50.998;18.164;2022-09-03T10:24:55;5.90;;;3.80;;
57333;SDS011;43165;50.998;18.164;2022-09-03T10:27:22;11.30;;;3.90;;
57333;SDS011;43165;50.998;18.164;2022-09-03T10:29:48;6.50;;;4.10;;
57333;SDS011;43165;50.998;18.164;2022-09-03T10:43:52;5.00;;;3.50;;
57333;SDS011;43165;50.998;18.164;2022-09-03T10:46:34;5.20;;;3.50;;
57333;SDS011;43165;50.998;18.164;2022-09-03T10:49:14;12.20;;;3.80;;
57333;SDS011;43165;50.998;18.164;2022-09-03T10:54:20;8.20;;;3.80;;
57333;SDS011;43165;50.998;18.164;2022-09-03T11:07:42;5.60;;;3.70;;
57333;SDS011;43165;50.998;18.164;2022-09-03T11:13:16;7.80;;;4.00;;
57333;SDS011;43165;50.998;18.164;2022-09-03T11:15:52;11.40;;;3.60;;
57333;SDS011;43165;50.998;18.164;2022-09-03T11:18:22;7.80;;;3.40;;
57333;SDS011;43165;50.998;18.164;2022-09-03T11:20:50;8.00;;;3.40;;
57333;SDS011;43165;50.998;18.164;2022-09-03T11:23:19;9.40;;;3.80;;
57333;SDS011;43165;50.998;18.164;2022-09-03T11:25:48;7.10;;;3.40;;
57333;SDS011;43165;50.998;18.164;2022-09-03T11:33:42;6.10;;;3.30;;
57333;SDS011;43165;50.998;18.164;2022-09-03T11:36:10;6.10;;;3.20;;
57333;SDS011;43165;50.998;18.164;2022-09-03T11:38:36;8.00;;;3.30;;
57333;SDS011;43165;50.998;18.164;2022-09-03T11:41:13;13.80;;;3.90;;
57333;SDS011;43165;50.998;18.164;2022-09-03T11:43:47;13.30;;;3.90;;
57333;SDS011;43165;50.998;18.164;2022-09-03T11:48:48;8.80;;;3.50;;
57333;SDS011;43165;50.998;18.164;2022-09-03T11:54:02;15.80;;;3.80;;
57333;SDS011;43165;50.998;18.164;2022-09-03T11:56:29;5.20;;;3.80;;
57333;SDS011;43165;50.998;18.164;2022-09-03T11:59:02;8.80;;;3.50;;
57333;SDS011;43165;50.998;18.164;2022-09-03T12:01:28;4.00;;;3.10;;
57333;SDS011;43165;50.998;18.164;2022-09-03T12:04:00;7.90;;;3.80;;
57333;SDS011;43165;50.998;18.164;2022-09-03T12:17:16;6.80;;;3.30;;
57333;SDS011;43165;50.998;18.164;2022-09-03T12:19:56;7.60;;;3.20;;
57333;SDS011;43165;50.998;18.164;2022-09-03T12:22:24;6.30;;;3.30;;
57333;SDS011;43165;50.998;18.164;2022-09-03T12:24:53;6.60;;;3.30;;
57333;SDS011;43165;50.998;18.164;2022-09-03T12:27:20;5.50;;;3.70;;
57333;SDS011;43165;50.998;18.164;2022-09-03T12:29:55;9.10;;;3.80;;
57333;SDS011;43165;50.998;18.164;2022-09-03T12:32:27;8.30;;;3.80;;
57333;SDS011;43165;50.998;18.164;2022-09-03T12:37:36;6.10;;;3.90;;
57333;SDS011;43165;50.998;18.164;2022-09-03T12:40:02;8.30;;;4.10;;
57333;SDS011;43165;50.998;18.164;2022-09-03T12:42:28;5.30;;;3.70;;
57333;SDS011;43165;50.998;18.164;2022-09-03T12:45:03;6.20;;;4.10;;
57333;SDS011;43165;50.998;18.164;2022-09-03T12:47:36;4.90;;;3.70;;
57333;SDS011;43165;50.998;18.164;2022-09-03T12:50:13;5.60;;;3.80;;
57333;SDS011;43165;50.998;18.164;2022-09-03T12:52:45;5.00;;;3.50;;
57333;SDS011;43165;50.998;18.164;2022-09-03T12:55:17;5.80;;;3.60;;
57333;SDS011;43165;50.998;18.164;2022-09-03T12:57:47;5.20;;;4.00;;
57333;SDS011;43165;50.998;18.164;2022-09-03T13:00:15;7.20;;;3.90;;
57333;SDS011;43165;50.998;18.164;2022-09-03T13:02:59;5.20;;;3.80;;
57333;SDS011;43165;50.998;18.164;2022-09-03T13:05:46;4.90;;;3.60;;
57333;SDS011;43165;50.998;18.164;2022-09-03T13:08:18;9.30;;;4.30;;
57333;SDS011;43165;50.998;18.164;2022-09-03T13:10:48;4.70;;;3.60;;
57333;SDS011;43165;50.998;18.164;2022-09-03T13:13:20;10.10;;;3.70;;
57333;SDS011;43165;50.998;18.164;2022-09-03T13:21:30;6.10;;;3.80;;
57333;SDS011;43165;50.998;18.164;2022-09-03T13:24:12;7.90;;;4.50;;
57333;SDS011;43165;50.998;18.164;2022-09-03T13:35:11;7.00;;;4.20;;
57333;SDS011;43165;50.998;18.164;2022-09-03T13:37:44;17.30;;;4.40;;
57333;SDS011;43165;50.998;18.164;2022-09-03T13:42:52;12.50;;;4.40;;
57333;SDS011;43165;50.998;18.164;2022-09-03T13:45:28;9.20;;;4.20;;
57333;SDS011;43165;50.998;18.164;2022-09-03T13:48:07;7.70;;;3.80;;
57333;SDS011;43165;50.998;18.164;2022-09-03T13:51:16;6.50;;;4.20;;
57333;SDS011;43165;50.998;18.164;2022-09-03T13:53:49;5.60;;;3.90;;
57333;SDS011;43165;50.998;18.164;2022-09-03T13:56:35;5.00;;;4.00;;
57333;SDS011;43165;50.998;18.164;2022-09-03T14:07:53;9.70;;;4.40;;
57333;SDS011;43165;50.998;18.164;2022-09-03T14:16:13;8.30;;;4.10;;
57333;SDS011;43165;50.998;18.164;2022-09-03T14:19:06;7.00;;;4.50;;
57333;SDS011;43165;50.998;18.164;2022-09-03T14:21:45;6.80;;;4.40;;
57333;SDS011;43165;50.998;18.164;2022-09-03T14:26:51;6.60;;;4.30;;
57333;SDS011;43165;50.998;18.164;2022-09-03T14:29:20;6.80;;;4.30;;
57333;SDS011;43165;50.998;18.164;2022-09-03T14:39:46;7.10;;;4.70;;
57333;SDS011;43165;50.998;18.164;2022-09-03T14:53:21;5.90;;;3.80;;
57333;SDS011;43165;50.998;18.164;2022-09-03T14:56:36;9.40;;;4.40;;
57333;SDS011;43165;50.998;18.164;2022-09-03T15:07:51;7.10;;;3.80;;
57333;SDS011;43165;50.998;18.164;2022-09-03T15:30:04;9.40;;;4.30;;
57333;SDS011;43165;50.998;18.164;2022-09-03T15:41:04;6.50;;;4.20;;
57333;SDS011;43165;50.998;18.164;2022-09-03T15:43:36;8.80;;;3.90;;
57333;SDS011;43165;50.998;18.164;2022-09-03T15:46:03;5.20;;;3.90;;
57333;SDS011;43165;50.998;18.164;2022-09-03T15:49:03;3.90;;;3.40;;
57333;SDS011;43165;50.998;18.164;2022-09-03T15:51:53;7.90;;;4.20;;
57333;SDS011;43165;50.998;18.164;2022-09-03T15:57:39;7.60;;;4.00;;
57333;SDS011;43165;50.998;18.164;2022-09-03T16:00:21;6.90;;;4.00;;
57333;SDS011;43165;50.998;18.164;2022-09-03T16:02:55;10.40;;;4.40;;
57333;SDS011;43165;50.998;18.164;2022-09-03T16:13:42;12.60;;;4.60;;
57333;SDS011;43165;50.998;18.164;2022-09-03T16:16:47;7.90;;;4.00;;
57333;SDS011;43165;50.998;18.164;2022-09-03T16:19:39;8.20;;;4.90;;
57333;SDS011;43165;50.998;18.164;2022-09-03T16:22:25;5.00;;;4.50;;
57333;SDS011;43165;50.998;18.164;2022-09-03T16:24:53;10.10;;;4.80;;
57333;SDS011;43165;50.998;18.164;2022-09-03T16:30:34;6.60;;;4.80;;
57333;SDS011;43165;50.998;18.164;2022-09-03T16:41:35;5.10;;;4.60;;
57333;SDS011;43165;50.998;18.164;2022-09-03T17:04:34;8.60;;;5.10;;
57333;SDS011;43165;50.998;18.164;2022-09-03T17:09:47;16.20;;;5.40;;
57333;SDS011;43165;50.998;18.164;2022-09-03T17:12:24;14.30;;;5.40;;
57333;SDS011;43165;50.998;18.164;2022-09-03T17:15:08;12.10;;;5.90;;
57333;SDS011;43165;50.998;18.164;2022-09-03T17:17:46;13.00;;;5.80;;
57333;SDS011;43165;50.998;18.164;2022-09-03T17:20:37;7.80;;;5.50;;
57333;SDS011;43165;50.998;18.164;2022-09-03T17:23:19;8.40;;;5.60;;
57333;SDS011;43165;50.998;18.164;2022-09-03T17:40:11;6.00;;;5.40;;
57333;SDS011;43165;50.998;18.164;2022-09-03T17:51:17;31.00;;;5.80;;
57333;SDS011;43165;50.998;18.164;2022-09-03T17:56:24;24.70;;;6.00;;
57333;SDS011;43165;50.998;18.164;2022-09-03T18:01:34;22.10;;;6.10;;
57333;SDS011;43165;50.998;18.164;2022-09-03T18:04:16;21.60;;;5.90;;
57333;SDS011;43165;50.998;18.164;2022-09-03T18:06:56;30.80;;;6.20;;
57333;SDS011;43165;50.998;18.164;2022-09-03T18:12:32;14.00;;;5.30;;
57333;SDS011;43165;50.998;18.164;2022-09-03T18:15:09;10.60;;;5.40;;
57333;SDS011;43165;50.998;18.164;2022-09-03T18:20:27;12.30;;;5.80;;
57333;SDS011;43165;50.998;18.164;2022-09-03T18:23:30;9.20;;;5.50;;
57333;SDS011;43165;50.998;18.164;2022-09-03T18:26:26;7.10;;;5.30;;
57333;SDS011;43165;50.998;18.164;2022-09-03T18:29:14;6.40;;;5.50;;
57333;SDS011;43165;50.998;18.164;2022-09-03T18:32:01;10.50;;;5.80;;
57333;SDS011;43165;50.998;18.164;2022-09-03T18:37:30;8.40;;;6.90;;
57333;SDS011;43165;50.998;18.164;2022-09-03T18:40:29;15.40;;;7.80;;
57333;SDS011;43165;50.998;18.164;2022-09-03T18:46:43;12.70;;;9.80;;
57333;SDS011;43165;50.998;18.164;2022-09-03T18:49:44;12.90;;;10.20;;
57333;SDS011;43165;50.998;18.164;2022-09-03T18:55:54;14.20;;;10.20;;
57333;SDS011;43165;50.998;18.164;2022-09-03T19:01:37;12.30;;;10.50;;
57333;SDS011;43165;50.998;18.164;2022-09-03T19:08:16;15.60;;;11.30;;
57333;SDS011;43165;50.998;18.164;2022-09-03T19:10:59;14.60;;;11.90;;
57333;SDS011;43165;50.998;18.164;2022-09-03T19:13:49;13.40;;;12.00;;
57333;SDS011;43165;50.998;18.164;2022-09-03T19:22:34;23.10;;;12.00;;
57333;SDS011;43165;50.998;18.164;2022-09-03T19:25:20;23.90;;;11.70;;
57333;SDS011;43165;50.998;18.164;2022-09-03T19:37:02;26.30;;;10.20;;
57333;SDS011;43165;50.998;18.164;2022-09-03T19:46:02;20.40;;;9.70;;
57333;SDS011;43165;50.998;18.164;2022-09-03T19:54:48;34.20;;;11.50;;
57333;SDS011;43165;50.998;18.164;2022-09-03T19:57:37;17.70;;;12.30;;
57333;SDS011;43165;50.998;18.164;2022-09-03T20:00:24;19.90;;;13.50;;
57333;SDS011;43165;50.998;18.164;2022-09-03T20:03:10;22.90;;;14.70;;
57333;SDS011;43165;50.998;18.164;2022-09-03T20:05:54;27.10;;;14.60;;
57333;SDS011;43165;50.998;18.164;2022-09-03T20:08:38;27.40;;;14.90;;
57333;SDS011;43165;50.998;18.164;2022-09-03T20:13:48;22.30;;;14.60;;
57333;SDS011;43165;50.998;18.164;2022-09-03T20:16:51;22.80;;;14.10;;
57333;SDS011;43165;50.998;18.164;2022-09-03T20:21:56;28.20;;;15.80;;
57333;SDS011;43165;50.998;18.164;2022-09-03T20:30:19;38.60;;;16.00;;
57333;SDS011;43165;50.998;18.164;2022-09-03T20:33:08;33.70;;;14.90;;
57333;SDS011;43165;50.998;18.164;2022-09-03T20:38:46;30.50;;;15.40;;
57333;SDS011;43165;50.998;18.164;2022-09-03T20:49:28;36.30;;;18.10;;
57333;SDS011;43165;50.998;18.164;2022-09-03T20:54:33;29.00;;;17.50;;
57333;SDS011;43165;50.998;18.164;2022-09-03T20:57:07;36.00;;;17.20;;
57333;SDS011;43165;50.998;18.164;2022-09-03T21:02:25;29.10;;;17.60;;
57333;SDS011;43165;50.998;18.164;2022-09-03T21:10:36;24.70;;;17.30;;
57333;SDS011;43165;50.998;18.164;2022-09-03T21:13:26;26.90;;;16.80;;
57333;SDS011;43165;50.998;18.164;2022-09-03T21:16:08;20.10;;;17.30;;
57333;SDS011;43165;50.998;18.164;2022-09-03T21:26:36;31.40;;;18.50;;
57333;SDS011;43165;50.998;18.164;2022-09-03T21:29:08;27.10;;;18.90;;
57333;SDS011;43165;50.998;18.164;2022-09-03T21:34:30;26.70;;;19.60;;
57333;SDS011;43165;50.998;18.164;2022-09-03T21:37:13;26.90;;;20.20;;
57333;SDS011;43165;50.998;18.164;2022-09-03T21:39:46;28.90;;;20.60;;
57333;SDS011;43165;50.998;18.164;2022-09-03T21:42:16;30.40;;;21.00;;